sensor_id;sensor_type;location;lat;lon;timestamp;temperature;humidity
68217;DHT22;55037;52.354;4.992;2023-02-03T00:00:05;10.60;89.80
68217;DHT22;55037;52.354;4.992;2023-02-03T00:02:37;10.60;89.50
68217;DHT22;55037;52.354;4.992;2023-02-03T00:05:04;10.70;90.00
68217;DHT22;55037;52.354;4.992;2023-02-03T00:07:32;10.70;89.10
68217;DHT22;55037;52.354;4.992;2023-02-03T00:10:01;10.70;88.90
68217;DHT22;55037;52.354;4.992;2023-02-03T00:12:28;10.70;88.80
68217;DHT22;55037;52.354;4.992;2023-02-03T00:14:55;10.70;88.70
68217;DHT22;55037;52.354;4.992;2023-02-03T00:17:22;10.70;88.60
68217;DHT22;55037;52.354;4.992;2023-02-03T00:19:50;10.70;88.40
68217;DHT22;55037;52.354;4.992;2023-02-03T00:22:17;10.70;88.20
68217;DHT22;55037;52.354;4.992;2023-02-03T00:24:44;10.80;88.20
68217;DHT22;55037;52.354;4.992;2023-02-03T00:27:11;10.80;87.90
68217;DHT22;55037;52.354;4.992;2023-02-03T00:29:40;10.80;86.90
68217;DHT22;55037;52.354;4.992;2023-02-03T00:32:07;10.80;87.70
68217;DHT22;55037;52.354;4.992;2023-02-03T00:34:34;10.80;87.60
68217;DHT22;55037;52.354;4.992;2023-02-03T00:37:02;10.80;87.50
68217;DHT22;55037;52.354;4.992;2023-02-03T00:39:30;10.80;87.60
68217;DHT22;55037;52.354;4.992;2023-02-03T00:41:57;10.80;87.60
68217;DHT22;55037;52.354;4.992;2023-02-03T00:44:24;10.80;87.60
68217;DHT22;55037;52.354;4.992;2023-02-03T00:46:51;10.70;87.50
68217;DHT22;55037;52.354;4.992;2023-02-03T00:49:19;10.80;87.30
68217;DHT22;55037;52.354;4.992;2023-02-03T00:51:46;10.80;87.20
68217;DHT22;55037;52.354;4.992;2023-02-03T00:54:13;10.70;87.10
68217;DHT22;55037;52.354;4.992;2023-02-03T00:56:40;10.80;88.10
68217;DHT22;55037;52.354;4.992;2023-02-03T00:59:08;10.80;87.00
68217;DHT22;55037;52.354;4.992;2023-02-03T01:01:35;10.80;87.00
68217;DHT22;55037;52.354;4.992;2023-02-03T01:04:03;10.70;86.80
68217;DHT22;55037;52.354;4.992;2023-02-03T01:06:32;10.80;86.60
68217;DHT22;55037;52.354;4.992;2023-02-03T01:09:02;10.80;86.40
68217;DHT22;55037;52.354;4.992;2023-02-03T01:11:31;10.80;86.20
68217;DHT22;55037;52.354;4.992;2023-02-03T01:13:58;10.80;86.10
68217;DHT22;55037;52.354;4.992;2023-02-03T01:16:29;10.80;86.00
68217;DHT22;55037;52.354;4.992;2023-02-03T01:18:57;10.90;85.80
68217;DHT22;55037;52.354;4.992;2023-02-03T01:21:25;10.90;85.50
68217;DHT22;55037;52.354;4.992;2023-02-03T01:23:53;10.90;85.20
68217;DHT22;55037;52.354;4.992;2023-02-03T01:26:22;10.90;85.00
68217;DHT22;55037;52.354;4.992;2023-02-03T01:28:57;10.90;84.70
68217;DHT22;55037;52.354;4.992;2023-02-03T01:31:28;10.90;84.50
68217;DHT22;55037;52.354;4.992;2023-02-03T01:33:56;11.00;84.40
68217;DHT22;55037;52.354;4.992;2023-02-03T01:36:25;11.00;84.20
68217;DHT22;55037;52.354;4.992;2023-02-03T01:38:53;11.00;84.10
68217;DHT22;55037;52.354;4.992;2023-02-03T01:41:26;11.00;83.90
68217;DHT22;55037;52.354;4.992;2023-02-03T01:43:56;11.00;83.70
68217;DHT22;55037;52.354;4.992;2023-02-03T01:48:56;11.00;83.40
68217;DHT22;55037;52.354;4.992;2023-02-03T01:51:25;11.10;83.50
68217;DHT22;55037;52.354;4.992;2023-02-03T01:53:53;11.00;83.30
68217;DHT22;55037;52.354;4.992;2023-02-03T01:56:21;11.10;83.50
68217;DHT22;55037;52.354;4.992;2023-02-03T01:58:50;11.10;83.40
68217;DHT22;55037;52.354;4.992;2023-02-03T02:01:17;11.10;83.10
68217;DHT22;55037;52.354;4.992;2023-02-03T02:03:55;10.10;82.60
68217;DHT22;55037;52.354;4.992;2023-02-03T02:06:25;11.10;83.10
68217;DHT22;55037;52.354;4.992;2023-02-03T02:08:53;11.10;83.00
68217;DHT22;55037;52.354;4.992;2023-02-03T02:11:21;11.20;82.70
68217;DHT22;55037;52.354;4.992;2023-02-03T02:13:50;11.10;82.70
68217;DHT22;55037;52.354;4.992;2023-02-03T02:34:00;11.10;83.10
68217;DHT22;55037;52.354;4.992;2023-02-03T02:36:33;11.10;83.30
68217;DHT22;55037;52.354;4.992;2023-02-03T02:41:43;11.10;83.60
68217;DHT22;55037;52.354;4.992;2023-02-03T02:44:27;11.10;83.80
68217;DHT22;55037;52.354;4.992;2023-02-03T02:47:03;11.10;83.80
68217;DHT22;55037;52.354;4.992;2023-02-03T02:49:53;11.10;83.90
68217;DHT22;55037;52.354;4.992;2023-02-03T02:52:22;11.10;83.90
68217;DHT22;55037;52.354;4.992;2023-02-03T02:54:53;11.10;83.90
68217;DHT22;55037;52.354;4.992;2023-02-03T02:57:25;11.10;83.90
68217;DHT22;55037;52.354;4.992;2023-02-03T02:59:53;11.10;84.00
68217;DHT22;55037;52.354;4.992;2023-02-03T03:02:21;11.10;84.20
68217;DHT22;55037;52.354;4.992;2023-02-03T03:04:49;11.10;84.00
68217;DHT22;55037;52.354;4.992;2023-02-03T03:07:22;11.10;84.10
68217;DHT22;55037;52.354;4.992;2023-02-03T03:10:02;11.00;84.20
68217;DHT22;55037;52.354;4.992;2023-02-03T03:12:35;11.00;84.20
68217;DHT22;55037;52.354;4.992;2023-02-03T03:15:07;11.00;84.30
68217;DHT22;55037;52.354;4.992;2023-02-03T03:17:41;11.00;84.20
68217;DHT22;55037;52.354;4.992;2023-02-03T03:20:17;11.00;84.30
68217;DHT22;55037;52.354;4.992;2023-02-03T03:23:10;11.00;84.50
68217;DHT22;55037;52.354;4.992;2023-02-03T03:25:59;11.00;85.30
68217;DHT22;55037;52.354;4.992;2023-02-03T03:28:36;11.00;84.40
68217;DHT22;55037;52.354;4.992;2023-02-03T03:31:06;11.00;84.50
68217;DHT22;55037;52.354;4.992;2023-02-03T03:33:34;11.00;84.50
68217;DHT22;55037;52.354;4.992;2023-02-03T03:36:27;11.00;84.40
68217;DHT22;55037;52.354;4.992;2023-02-03T03:39:02;11.00;84.30
68217;DHT22;55037;52.354;4.992;2023-02-03T03:44:14;11.10;84.20
68217;DHT22;55037;52.354;4.992;2023-02-03T03:46:59;11.10;84.30
68217;DHT22;55037;52.354;4.992;2023-02-03T03:49:28;11.10;84.30
68217;DHT22;55037;52.354;4.992;2023-02-03T03:52:00;11.00;84.30
68217;DHT22;55037;52.354;4.992;2023-02-03T03:54:29;11.00;84.50
68217;DHT22;55037;52.354;4.992;2023-02-03T03:57:01;11.00;84.50
68217;DHT22;55037;52.354;4.992;2023-02-03T03:59:34;11.00;84.50
68217;DHT22;55037;52.354;4.992;2023-02-03T04:02:03;11.00;84.50
68217;DHT22;55037;52.354;4.992;2023-02-03T04:04:33;11.00;84.50
68217;DHT22;55037;52.354;4.992;2023-02-03T04:07:01;11.00;84.20
68217;DHT22;55037;52.354;4.992;2023-02-03T04:09:28;11.00;84.30
68217;DHT22;55037;52.354;4.992;2023-02-03T04:11:55;11.00;84.30
68217;DHT22;55037;52.354;4.992;2023-02-03T04:14:34;11.00;84.40
68217;DHT22;55037;52.354;4.992;2023-02-03T04:17:04;11.00;84.30
68217;DHT22;55037;52.354;4.992;2023-02-03T04:19:31;11.00;84.30
68217;DHT22;55037;52.354;4.992;2023-02-03T04:21:59;11.10;84.20
68217;DHT22;55037;52.354;4.992;2023-02-03T04:24:26;11.00;84.10
68217;DHT22;55037;52.354;4.992;2023-02-03T04:26:54;11.00;84.20
68217;DHT22;55037;52.354;4.992;2023-02-03T04:29:21;11.00;84.30
68217;DHT22;55037;52.354;4.992;2023-02-03T04:31:48;11.00;84.40
68217;DHT22;55037;52.354;4.992;2023-02-03T04:34:15;10.90;84.40
68217;DHT22;55037;52.354;4.992;2023-02-03T04:36:42;11.00;84.20
68217;DHT22;55037;52.354;4.992;2023-02-03T04:39:10;11.00;84.30
68217;DHT22;55037;52.354;4.992;2023-02-03T04:41:37;10.90;84.40
68217;DHT22;55037;52.354;4.992;2023-02-03T04:44:04;10.90;84.50
68217;DHT22;55037;52.354;4.992;2023-02-03T04:46:31;10.90;84.50
68217;DHT22;55037;52.354;4.992;2023-02-03T04:48:59;10.90;84.60
68217;DHT22;55037;52.354;4.992;2023-02-03T04:51:26;10.90;84.50
68217;DHT22;55037;52.354;4.992;2023-02-03T04:53:53;10.90;84.40
68217;DHT22;55037;52.354;4.992;2023-02-03T04:56:20;12.00;85.00
68217;DHT22;55037;52.354;4.992;2023-02-03T04:58:47;10.50;84.40
68217;DHT22;55037;52.354;4.992;2023-02-03T05:01:14;10.90;84.60
68217;DHT22;55037;52.354;4.992;2023-02-03T05:03:42;10.80;84.90
68217;DHT22;55037;52.354;4.992;2023-02-03T05:06:09;10.80;85.00
68217;DHT22;55037;52.354;4.992;2023-02-03T05:08:36;10.70;85.00
68217;DHT22;55037;52.354;4.992;2023-02-03T05:11:03;10.80;85.20
68217;DHT22;55037;52.354;4.992;2023-02-03T05:13:32;10.70;85.10
68217;DHT22;55037;52.354;4.992;2023-02-03T05:15:59;10.70;85.30
68217;DHT22;55037;52.354;4.992;2023-02-03T05:18:27;10.70;85.40
68217;DHT22;55037;52.354;4.992;2023-02-03T05:20:54;10.70;85.50
68217;DHT22;55037;52.354;4.992;2023-02-03T05:23:21;10.70;85.70
68217;DHT22;55037;52.354;4.992;2023-02-03T05:25:48;10.70;85.80
68217;DHT22;55037;52.354;4.992;2023-02-03T05:28:15;10.60;85.70
68217;DHT22;55037;52.354;4.992;2023-02-03T05:30:43;10.60;85.20
68217;DHT22;55037;52.354;4.992;2023-02-03T05:33:10;10.60;86.00
68217;DHT22;55037;52.354;4.992;2023-02-03T05:35:37;10.60;86.10
68217;DHT22;55037;52.354;4.992;2023-02-03T05:38:05;10.60;86.10
68217;DHT22;55037;52.354;4.992;2023-02-03T05:40:32;10.50;86.10
68217;DHT22;55037;52.354;4.992;2023-02-03T05:43:18;10.50;86.20
68217;DHT22;55037;52.354;4.992;2023-02-03T05:45:45;10.50;86.20
68217;DHT22;55037;52.354;4.992;2023-02-03T05:48:12;10.60;86.30
68217;DHT22;55037;52.354;4.992;2023-02-03T05:50:39;10.50;86.40
68217;DHT22;55037;52.354;4.992;2023-02-03T05:53:07;10.60;86.30
68217;DHT22;55037;52.354;4.992;2023-02-03T05:55:35;10.50;86.40
68217;DHT22;55037;52.354;4.992;2023-02-03T05:58:04;10.50;86.50
68217;DHT22;55037;52.354;4.992;2023-02-03T06:00:31;10.50;86.40
68217;DHT22;55037;52.354;4.992;2023-02-03T06:03:00;10.50;86.60
68217;DHT22;55037;52.354;4.992;2023-02-03T06:05:29;10.50;86.80
68217;DHT22;55037;52.354;4.992;2023-02-03T06:07:56;10.40;86.90
68217;DHT22;55037;52.354;4.992;2023-02-03T06:10:24;10.40;86.80
68217;DHT22;55037;52.354;4.992;2023-02-03T06:12:52;10.40;86.90
68217;DHT22;55037;52.354;4.992;2023-02-03T06:15:20;10.50;86.80
68217;DHT22;55037;52.354;4.992;2023-02-03T06:17:47;10.50;86.70
68217;DHT22;55037;52.354;4.992;2023-02-03T06:20:17;10.50;86.80
68217;DHT22;55037;52.354;4.992;2023-02-03T06:22:45;10.50;86.80
68217;DHT22;55037;52.354;4.992;2023-02-03T06:25:12;10.50;86.80
68217;DHT22;55037;52.354;4.992;2023-02-03T06:27:40;10.50;86.80
68217;DHT22;55037;52.354;4.992;2023-02-03T06:30:08;10.50;86.80
68217;DHT22;55037;52.354;4.992;2023-02-03T06:32:37;10.50;86.80
68217;DHT22;55037;52.354;4.992;2023-02-03T06:35:04;10.50;86.80
68217;DHT22;55037;52.354;4.992;2023-02-03T06:37:32;10.40;86.90
68217;DHT22;55037;52.354;4.992;2023-02-03T06:39:59;10.50;87.00
68217;DHT22;55037;52.354;4.992;2023-02-03T06:42:26;10.50;86.90
68217;DHT22;55037;52.354;4.992;2023-02-03T06:44:54;10.50;87.00
68217;DHT22;55037;52.354;4.992;2023-02-03T06:47:21;10.50;87.00
68217;DHT22;55037;52.354;4.992;2023-02-03T06:49:48;10.50;86.90
68217;DHT22;55037;52.354;4.992;2023-02-03T06:52:15;10.50;87.00
68217;DHT22;55037;52.354;4.992;2023-02-03T06:54:42;10.50;87.00
68217;DHT22;55037;52.354;4.992;2023-02-03T06:57:10;10.50;87.10
68217;DHT22;55037;52.354;4.992;2023-02-03T06:59:37;10.50;87.10
68217;DHT22;55037;52.354;4.992;2023-02-03T07:02:04;10.60;87.00
68217;DHT22;55037;52.354;4.992;2023-02-03T07:04:32;10.60;86.90
68217;DHT22;55037;52.354;4.992;2023-02-03T07:06:59;10.60;86.80
68217;DHT22;55037;52.354;4.992;2023-02-03T07:09:26;10.70;86.70
68217;DHT22;55037;52.354;4.992;2023-02-03T07:11:53;10.70;86.50
68217;DHT22;55037;52.354;4.992;2023-02-03T07:14:22;10.70;86.40
68217;DHT22;55037;52.354;4.992;2023-02-03T07:16:49;10.60;86.60
68217;DHT22;55037;52.354;4.992;2023-02-03T07:19:16;10.60;86.80
68217;DHT22;55037;52.354;4.992;2023-02-03T07:21:43;10.60;86.80
68217;DHT22;55037;52.354;4.992;2023-02-03T07:24:10;10.60;86.90
68217;DHT22;55037;52.354;4.992;2023-02-03T07:26:37;10.60;87.10
68217;DHT22;55037;52.354;4.992;2023-02-03T07:29:05;10.60;87.30
68217;DHT22;55037;52.354;4.992;2023-02-03T07:31:32;10.50;87.40
68217;DHT22;55037;52.354;4.992;2023-02-03T07:34:00;10.50;87.50
68217;DHT22;55037;52.354;4.992;2023-02-03T07:36:27;11.90;88.30
68217;DHT22;55037;52.354;4.992;2023-02-03T07:38:55;10.50;87.70
68217;DHT22;55037;52.354;4.992;2023-02-03T07:41:22;10.50;87.70
68217;DHT22;55037;52.354;4.992;2023-02-03T07:43:49;10.50;87.90
68217;DHT22;55037;52.354;4.992;2023-02-03T07:46:16;10.60;87.90
68217;DHT22;55037;52.354;4.992;2023-02-03T07:48:44;10.60;87.80
68217;DHT22;55037;52.354;4.992;2023-02-03T07:51:11;10.70;87.80
68217;DHT22;55037;52.354;4.992;2023-02-03T07:53:38;10.60;87.60
68217;DHT22;55037;52.354;4.992;2023-02-03T07:56:05;10.70;87.60
68217;DHT22;55037;52.354;4.992;2023-02-03T07:58:32;10.80;87.60
68217;DHT22;55037;52.354;4.992;2023-02-03T08:01:00;10.80;87.30
68217;DHT22;55037;52.354;4.992;2023-02-03T08:03:27;10.90;87.20
68217;DHT22;55037;52.354;4.992;2023-02-03T08:05:54;10.90;87.00
68217;DHT22;55037;52.354;4.992;2023-02-03T08:08:21;11.00;86.80
68217;DHT22;55037;52.354;4.992;2023-02-03T08:10:48;11.00;86.60
68217;DHT22;55037;52.354;4.992;2023-02-03T08:13:15;11.00;86.60
68217;DHT22;55037;52.354;4.992;2023-02-03T08:15:43;11.10;86.60
68217;DHT22;55037;52.354;4.992;2023-02-03T08:18:10;11.10;86.50
68217;DHT22;55037;52.354;4.992;2023-02-03T08:20:38;11.10;86.50
68217;DHT22;55037;52.354;4.992;2023-02-03T08:23:06;11.10;86.30
68217;DHT22;55037;52.354;4.992;2023-02-03T08:25:33;11.10;86.20
68217;DHT22;55037;52.354;4.992;2023-02-03T08:28:00;11.20;86.20
68217;DHT22;55037;52.354;4.992;2023-02-03T08:30:27;11.20;86.20
68217;DHT22;55037;52.354;4.992;2023-02-03T08:32:56;11.20;86.90
68217;DHT22;55037;52.354;4.992;2023-02-03T08:35:24;11.20;85.90
68217;DHT22;55037;52.354;4.992;2023-02-03T08:37:51;11.20;86.00
68217;DHT22;55037;52.354;4.992;2023-02-03T08:40:18;11.30;85.10
68217;DHT22;55037;52.354;4.992;2023-02-03T08:42:45;11.30;85.80
68217;DHT22;55037;52.354;4.992;2023-02-03T08:45:13;11.30;85.80
68217;DHT22;55037;52.354;4.992;2023-02-03T08:47:40;11.40;85.80
68217;DHT22;55037;52.354;4.992;2023-02-03T08:50:08;11.40;85.50
68217;DHT22;55037;52.354;4.992;2023-02-03T08:52:35;11.50;85.30
68217;DHT22;55037;52.354;4.992;2023-02-03T08:55:02;11.50;85.20
68217;DHT22;55037;52.354;4.992;2023-02-03T08:57:34;11.60;85.10
68217;DHT22;55037;52.354;4.992;2023-02-03T09:00:03;11.60;84.70
68217;DHT22;55037;52.354;4.992;2023-02-03T09:02:31;11.70;84.60
68217;DHT22;55037;52.354;4.992;2023-02-03T09:04:58;11.70;84.50
68217;DHT22;55037;52.354;4.992;2023-02-03T09:07:25;11.70;84.20
68217;DHT22;55037;52.354;4.992;2023-02-03T09:09:53;11.70;84.20
68217;DHT22;55037;52.354;4.992;2023-02-03T09:12:20;11.80;84.00
68217;DHT22;55037;52.354;4.992;2023-02-03T09:14:47;11.80;83.60
68217;DHT22;55037;52.354;4.992;2023-02-03T09:17:14;11.90;83.50
68217;DHT22;55037;52.354;4.992;2023-02-03T09:19:42;11.90;83.20
68217;DHT22;55037;52.354;4.992;2023-02-03T09:22:09;11.90;83.10
68217;DHT22;55037;52.354;4.992;2023-02-03T09:24:36;12.00;83.00
68217;DHT22;55037;52.354;4.992;2023-02-03T09:27:03;12.00;82.80
68217;DHT22;55037;52.354;4.992;2023-02-03T09:29:31;12.00;82.80
68217;DHT22;55037;52.354;4.992;2023-02-03T09:31:58;12.00;82.60
68217;DHT22;55037;52.354;4.992;2023-02-03T09:34:26;12.00;82.60
68217;DHT22;55037;52.354;4.992;2023-02-03T09:36:53;12.00;82.70
68217;DHT22;55037;52.354;4.992;2023-02-03T09:39:20;12.00;82.60
68217;DHT22;55037;52.354;4.992;2023-02-03T09:47:19;11.90;82.70
68217;DHT22;55037;52.354;4.992;2023-02-03T09:49:52;12.00;82.80
68217;DHT22;55037;52.354;4.992;2023-02-03T09:55:24;12.00;82.50
68217;DHT22;55037;52.354;4.992;2023-02-03T09:58:12;12.00;82.40
68217;DHT22;55037;52.354;4.992;2023-02-03T10:03:42;11.90;82.60
68217;DHT22;55037;52.354;4.992;2023-02-03T10:06:31;11.90;82.70
68217;DHT22;55037;52.354;4.992;2023-02-03T10:17:42;11.90;82.80
68217;DHT22;55037;52.354;4.992;2023-02-03T10:20:23;12.00;82.90
68217;DHT22;55037;52.354;4.992;2023-02-03T10:22:57;12.00;82.90
68217;DHT22;55037;52.354;4.992;2023-02-03T10:25:51;12.00;82.90
68217;DHT22;55037;52.354;4.992;2023-02-03T10:28:26;12.10;83.20
68217;DHT22;55037;52.354;4.992;2023-02-03T10:31:00;12.10;82.60
68217;DHT22;55037;52.354;4.992;2023-02-03T10:33:31;12.00;82.70
68217;DHT22;55037;52.354;4.992;2023-02-03T10:36:19;12.10;82.50
68217;DHT22;55037;52.354;4.992;2023-02-03T10:41:29;12.10;82.60
68217;DHT22;55037;52.354;4.992;2023-02-03T10:44:00;12.10;82.80
68217;DHT22;55037;52.354;4.992;2023-02-03T10:46:46;12.20;82.60
68217;DHT22;55037;52.354;4.992;2023-02-03T10:49:13;12.20;82.50
68217;DHT22;55037;52.354;4.992;2023-02-03T10:51:47;12.20;82.40
68217;DHT22;55037;52.354;4.992;2023-02-03T10:54:33;12.20;82.20
68217;DHT22;55037;52.354;4.992;2023-02-03T10:59:33;12.20;82.50
68217;DHT22;55037;52.354;4.992;2023-02-03T11:02:07;12.10;82.40
68217;DHT22;55037;52.354;4.992;2023-02-03T11:04:35;12.10;82.60
68217;DHT22;55037;52.354;4.992;2023-02-03T11:07:06;12.10;82.90
68217;DHT22;55037;52.354;4.992;2023-02-03T11:09:37;12.20;83.10
68217;DHT22;55037;52.354;4.992;2023-02-03T11:14:50;12.10;82.90
68217;DHT22;55037;52.354;4.992;2023-02-03T11:20:03;12.10;82.80
68217;DHT22;55037;52.354;4.992;2023-02-03T11:22:39;12.10;83.10
68217;DHT22;55037;52.354;4.992;2023-02-03T11:25:21;12.10;83.30
68217;DHT22;55037;52.354;4.992;2023-02-03T11:27:51;12.10;83.20
68217;DHT22;55037;52.354;4.992;2023-02-03T11:30:24;12.00;83.00
68217;DHT22;55037;52.354;4.992;2023-02-03T11:32:53;12.00;83.40
68217;DHT22;55037;52.354;4.992;2023-02-03T11:35:23;12.00;83.60
68217;DHT22;55037;52.354;4.992;2023-02-03T11:37:55;12.00;83.60
68217;DHT22;55037;52.354;4.992;2023-02-03T11:51:02;11.60;85.60
68217;DHT22;55037;52.354;4.992;2023-02-03T11:59:52;11.70;85.00
68217;DHT22;55037;52.354;4.992;2023-02-03T12:02:58;11.70;85.80
68217;DHT22;55037;52.354;4.992;2023-02-03T12:06:03;11.70;85.40
68217;DHT22;55037;52.354;4.992;2023-02-03T12:12:00;11.70;84.80
68217;DHT22;55037;52.354;4.992;2023-02-03T12:14:43;11.70;85.60
68217;DHT22;55037;52.354;4.992;2023-02-03T12:19:55;11.80;85.50
68217;DHT22;55037;52.354;4.992;2023-02-03T12:22:33;11.80;85.70
68217;DHT22;55037;52.354;4.992;2023-02-03T12:31:06;11.90;85.10
68217;DHT22;55037;52.354;4.992;2023-02-03T12:33:41;11.90;85.10
68217;DHT22;55037;52.354;4.992;2023-02-03T12:36:19;12.00;85.00
68217;DHT22;55037;52.354;4.992;2023-02-03T12:41:42;12.00;84.50
68217;DHT22;55037;52.354;4.992;2023-02-03T12:47:00;12.20;84.10
68217;DHT22;55037;52.354;4.992;2023-02-03T12:49:49;12.10;83.60
68217;DHT22;55037;52.354;4.992;2023-02-03T12:52:39;12.20;83.40
68217;DHT22;55037;52.354;4.992;2023-02-03T12:55:19;12.10;83.40
68217;DHT22;55037;52.354;4.992;2023-02-03T12:57:55;12.10;83.70
68217;DHT22;55037;52.354;4.992;2023-02-03T13:00:45;12.10;83.70
68217;DHT22;55037;52.354;4.992;2023-02-03T13:14:23;12.10;83.60
68217;DHT22;55037;52.354;4.992;2023-02-03T13:17:14;12.00;83.70
68217;DHT22;55037;52.354;4.992;2023-02-03T13:19:55;11.90;83.90
68217;DHT22;55037;52.354;4.992;2023-02-03T13:22:24;11.90;84.00
68217;DHT22;55037;52.354;4.992;2023-02-03T13:25:08;11.90;83.80
68217;DHT22;55037;52.354;4.992;2023-02-03T13:33:41;11.80;84.50
68217;DHT22;55037;52.354;4.992;2023-02-03T13:36:19;11.80;84.10
68217;DHT22;55037;52.354;4.992;2023-02-03T13:42:23;11.70;83.70
68217;DHT22;55037;52.354;4.992;2023-02-03T13:45:04;11.70;83.50
68217;DHT22;55037;52.354;4.992;2023-02-03T13:47:32;11.60;83.70
68217;DHT22;55037;52.354;4.992;2023-02-03T13:50:04;11.60;83.60
68217;DHT22;55037;52.354;4.992;2023-02-03T13:52:45;11.60;83.60
68217;DHT22;55037;52.354;4.992;2023-02-03T13:55:41;11.50;83.80
68217;DHT22;55037;52.354;4.992;2023-02-03T13:58:23;11.60;83.80
68217;DHT22;55037;52.354;4.992;2023-02-03T14:03:42;11.60;82.90
68217;DHT22;55037;52.354;4.992;2023-02-03T14:23:18;11.70;80.20
68217;DHT22;55037;52.354;4.992;2023-02-03T14:25:54;11.80;80.00
68217;DHT22;55037;52.354;4.992;2023-02-03T14:28:37;11.70;79.70
68217;DHT22;55037;52.354;4.992;2023-02-03T14:31:12;11.80;79.50
68217;DHT22;55037;52.354;4.992;2023-02-03T14:34:10;11.70;79.30
68217;DHT22;55037;52.354;4.992;2023-02-03T14:36:45;11.70;78.90
68217;DHT22;55037;52.354;4.992;2023-02-03T14:42:02;11.60;78.60
68217;DHT22;55037;52.354;4.992;2023-02-03T14:55:35;11.50;77.90
68217;DHT22;55037;52.354;4.992;2023-02-03T14:58:19;11.50;78.00
68217;DHT22;55037;52.354;4.992;2023-02-03T15:00:48;11.50;77.90
68217;DHT22;55037;52.354;4.992;2023-02-03T15:03:19;11.50;77.70
68217;DHT22;55037;52.354;4.992;2023-02-03T15:05:52;11.40;78.00
68217;DHT22;55037;52.354;4.992;2023-02-03T15:08:46;11.40;78.10
68217;DHT22;55037;52.354;4.992;2023-02-03T15:13:42;11.30;77.70
68217;DHT22;55037;52.354;4.992;2023-02-03T15:16:15;11.20;77.60
68217;DHT22;55037;52.354;4.992;2023-02-03T15:18:44;11.20;77.60
68217;DHT22;55037;52.354;4.992;2023-02-03T15:21:19;11.20;77.70
68217;DHT22;55037;52.354;4.992;2023-02-03T15:23:47;11.20;77.40
68217;DHT22;55037;52.354;4.992;2023-02-03T15:26:21;11.20;77.40
68217;DHT22;55037;52.354;4.992;2023-02-03T15:29:00;11.20;77.20
68217;DHT22;55037;52.354;4.992;2023-02-03T15:34:16;11.20;76.60
68217;DHT22;55037;52.354;4.992;2023-02-03T15:36:50;11.20;76.30
68217;DHT22;55037;52.354;4.992;2023-02-03T15:39:38;11.20;76.70
68217;DHT22;55037;52.354;4.992;2023-02-03T15:42:16;11.10;77.20
68217;DHT22;55037;52.354;4.992;2023-02-03T15:47:52;11.20;77.20
68217;DHT22;55037;52.354;4.992;2023-02-03T15:50:43;11.10;76.50
68217;DHT22;55037;52.354;4.992;2023-02-03T15:55:47;11.10;77.30
68217;DHT22;55037;52.354;4.992;2023-02-03T15:58:25;11.10;77.20
68217;DHT22;55037;52.354;4.992;2023-02-03T16:00:54;11.00;77.30
68217;DHT22;55037;52.354;4.992;2023-02-03T16:03:43;11.00;77.30
68217;DHT22;55037;52.354;4.992;2023-02-03T16:08:45;11.00;77.10
68217;DHT22;55037;52.354;4.992;2023-02-03T16:11:20;10.90;77.20
68217;DHT22;55037;52.354;4.992;2023-02-03T16:13:48;10.90;77.30
68217;DHT22;55037;52.354;4.992;2023-02-03T16:16:25;10.90;78.40
68217;DHT22;55037;52.354;4.992;2023-02-03T16:19:04;10.70;77.80
68217;DHT22;55037;52.354;4.992;2023-02-03T16:21:50;10.80;78.10
68217;DHT22;55037;52.354;4.992;2023-02-03T16:24:37;10.70;78.20
68217;DHT22;55037;52.354;4.992;2023-02-03T16:30:20;10.70;78.80
68217;DHT22;55037;52.354;4.992;2023-02-03T16:36:10;10.60;79.20
68217;DHT22;55037;52.354;4.992;2023-02-03T16:38:59;10.60;79.40
68217;DHT22;55037;52.354;4.992;2023-02-03T16:41:46;10.60;79.90
68217;DHT22;55037;52.354;4.992;2023-02-03T16:44:32;10.60;80.40
68217;DHT22;55037;52.354;4.992;2023-02-03T16:47:25;10.50;80.70
68217;DHT22;55037;52.354;4.992;2023-02-03T16:50:13;10.50;81.10
68217;DHT22;55037;52.354;4.992;2023-02-03T16:53:10;10.50;81.50
68217;DHT22;55037;52.354;4.992;2023-02-03T16:55:38;10.40;81.80
68217;DHT22;55037;52.354;4.992;2023-02-03T16:58:06;10.40;82.00
68217;DHT22;55037;52.354;4.992;2023-02-03T17:00:34;10.40;82.10
68217;DHT22;55037;52.354;4.992;2023-02-03T17:03:04;10.40;82.10
68217;DHT22;55037;52.354;4.992;2023-02-03T17:05:38;10.30;82.20
68217;DHT22;55037;52.354;4.992;2023-02-03T17:08:06;10.30;82.20
68217;DHT22;55037;52.354;4.992;2023-02-03T17:10:34;10.30;82.20
68217;DHT22;55037;52.354;4.992;2023-02-03T17:13:03;10.30;82.00
68217;DHT22;55037;52.354;4.992;2023-02-03T17:15:30;10.30;82.10
68217;DHT22;55037;52.354;4.992;2023-02-03T17:17:58;10.30;82.10
68217;DHT22;55037;52.354;4.992;2023-02-03T17:20:25;10.30;82.00
68217;DHT22;55037;52.354;4.992;2023-02-03T17:22:53;10.30;81.60
68217;DHT22;55037;52.354;4.992;2023-02-03T17:25:21;10.20;81.20
68217;DHT22;55037;52.354;4.992;2023-02-03T17:27:48;10.20;81.10
68217;DHT22;55037;52.354;4.992;2023-02-03T17:30:15;10.20;80.90
68217;DHT22;55037;52.354;4.992;2023-02-03T17:32:42;10.20;80.80
68217;DHT22;55037;52.354;4.992;2023-02-03T17:35:09;10.10;80.60
68217;DHT22;55037;52.354;4.992;2023-02-03T17:37:37;10.10;80.60
68217;DHT22;55037;52.354;4.992;2023-02-03T17:40:04;10.10;80.60
68217;DHT22;55037;52.354;4.992;2023-02-03T17:42:49;10.00;80.70
68217;DHT22;55037;52.354;4.992;2023-02-03T17:45:39;10.00;80.80
68217;DHT22;55037;52.354;4.992;2023-02-03T17:48:24;10.10;81.00
68217;DHT22;55037;52.354;4.992;2023-02-03T17:51:11;10.00;81.00
68217;DHT22;55037;52.354;4.992;2023-02-03T17:53:57;10.10;81.00
68217;DHT22;55037;52.354;4.992;2023-02-03T17:56:31;10.10;81.00
68217;DHT22;55037;52.354;4.992;2023-02-03T17:59:01;10.20;80.90
68217;DHT22;55037;52.354;4.992;2023-02-03T18:01:28;10.20;80.90
68217;DHT22;55037;52.354;4.992;2023-02-03T18:03:58;10.30;80.80
68217;DHT22;55037;52.354;4.992;2023-02-03T18:06:27;10.30;80.90
68217;DHT22;55037;52.354;4.992;2023-02-03T18:08:55;10.40;81.00
68217;DHT22;55037;52.354;4.992;2023-02-03T18:11:28;10.40;81.00
68217;DHT22;55037;52.354;4.992;2023-02-03T18:13:56;10.50;80.70
68217;DHT22;55037;52.354;4.992;2023-02-03T18:16:27;10.50;81.80
68217;DHT22;55037;52.354;4.992;2023-02-03T18:19:03;10.50;81.00
68217;DHT22;55037;52.354;4.992;2023-02-03T18:21:31;10.50;80.90
68217;DHT22;55037;52.354;4.992;2023-02-03T18:23:59;10.50;81.00
68217;DHT22;55037;52.354;4.992;2023-02-03T18:26:29;10.40;81.10
68217;DHT22;55037;52.354;4.992;2023-02-03T18:29:01;10.40;81.20
68217;DHT22;55037;52.354;4.992;2023-02-03T18:31:29;10.40;81.30
68217;DHT22;55037;52.354;4.992;2023-02-03T18:34:01;10.40;81.60
68217;DHT22;55037;52.354;4.992;2023-02-03T18:36:29;10.40;81.60
68217;DHT22;55037;52.354;4.992;2023-02-03T18:38:57;10.40;81.80
68217;DHT22;55037;52.354;4.992;2023-02-03T18:41:25;10.40;81.70